Ana Sayfa
METAR-TAF:

METAR-TAF

Havaalanları :

Cengiz Topel Havalimanı

İzmit, Türkiye

Enlem: 40-44N, Boylam: 030-05E, yükseklik: 50 m

Güncel hava durumu gözlemi

Rapor saat 03:50 UTC de 1 saat ve 6 dakika önce yapıldı.
Sakin rüzgar
Sıcaklık 15°C
Nem 100%
Basınç 1010 hPa
Görüş mesafesi: 7000 m
1000 ft yükseklikte az bulutlu

METAR: LTBQ 150350Z 00000KT 7000 FEW010 15/15 Q1010 NOSIG

Saat: 07:56 (04:56 UTC)

Tahmin

Rapor saat 01:40 UTC de 3 saat ve 16 dakika önce yapıldı.
Ayın 15'si saat 03 UTC'den ayın 15'si saat 12 UTC'ye kadar geçerli Tahmin
Rüzgar kuzeydoğudan 7 kt
Görüş mesafesi: 8000 m
Geçici
ayın 15'si saat 03 UTC'den ayın 15'si saat 07 UTC'ye kadar
Görüş mesafesi: 3200 m
1000 ft yükseklikte parçalı bulutlu
Pus

TAF: LTBQ 150140Z 1503/1512 05007KT 8000 NSC TEMPO 1503/1507 3200 BR SCT010

4.000'den fazla havaalanı için hava durumu gözlemleri ve tahminleri (METAR ve TAF raporları).

Kullanılabilir istasyonlar harita üzerinde sarı ve kırmızı noktalarla gösterilir.

İstasyonun adını görmek için fareyi noktanın üzerinde gezdirin.

Sonrasında hava gözlem ve tahminlerini görmek için tıklayın.

Haritayı değiştirmek için: yaklaştırmak için siyah artı işaretli yeşil düğmeye ve uzaklaştırmak için de eksi işaretli düğmeye hızla tıklayın; bitişik haritalar için yeşil okları kullanın.


METAR-TAF: